Terminal Aerodrome Forecast
Issued by NWS

Home | Current Version | Previous Version | Text Only | Print | Product List | Glossary On
Versions: 1 2 3 4 5 6 7 8 9 10 11 12 13 14 15 16 17 18 19 20 21 22 23 24 25 26 27 28 29 30 31 32 33 34 35 36 37 38 39 40 41 42
000
FTUS45 KCYS 080520
TAFLAR
TAF
KLAR 080520Z 0806/0906 15010KT P6SM BKN080
      TEMPO 0806/0808 3SM BR BKN015
     FM080800 19008KT 1SM -RA BR OVC015
     FM081500 04010G20KT P6SM BKN035
     FM081900 08010G20KT P6SM VCTS BKN035CB
     FM090200 09009KT 1SM BR OVC015=

USA.gov is the U.S. government's official web portal to all federal, state and local government web resources and services.